sensor_id;sensor_type;location;lat;lon;timestamp;temperature;humidity
3348;DHT22;1687;49.540;8.574;2023-11-18T00:01:24;9.10;99.90
3348;DHT22;1687;49.540;8.574;2023-11-18T00:03:50;9.20;99.90
3348;DHT22;1687;49.540;8.574;2023-11-18T00:06:15;9.20;99.90
3348;DHT22;1687;49.540;8.574;2023-11-18T00:08:41;9.20;99.90
3348;DHT22;1687;49.540;8.574;2023-11-18T00:11:07;9.10;99.90
3348;DHT22;1687;49.540;8.574;2023-11-18T00:13:34;9.20;99.90
3348;DHT22;1687;49.540;8.574;2023-11-18T00:16:00;9.20;99.90
3348;DHT22;1687;49.540;8.574;2023-11-18T00:18:25;9.20;99.90
3348;DHT22;1687;49.540;8.574;2023-11-18T00:20:51;9.30;99.90
3348;DHT22;1687;49.540;8.574;2023-11-18T00:23:17;9.30;99.90
3348;DHT22;1687;49.540;8.574;2023-11-18T00:25:43;9.30;99.90
3348;DHT22;1687;49.540;8.574;2023-11-18T00:28:10;9.30;99.90
3348;DHT22;1687;49.540;8.574;2023-11-18T00:30:37;9.30;99.90
3348;DHT22;1687;49.540;8.574;2023-11-18T00:33:03;9.30;99.90
3348;DHT22;1687;49.540;8.574;2023-11-18T00:35:28;9.30;99.90
3348;DHT22;1687;49.540;8.574;2023-11-18T00:37:57;9.20;99.90
3348;DHT22;1687;49.540;8.574;2023-11-18T00:40:24;9.20;99.90
3348;DHT22;1687;49.540;8.574;2023-11-18T00:42:50;9.10;99.90
3348;DHT22;1687;49.540;8.574;2023-11-18T00:45:16;9.10;99.90
3348;DHT22;1687;49.540;8.574;2023-11-18T00:47:41;9.20;99.90
3348;DHT22;1687;49.540;8.574;2023-11-18T00:50:07;9.20;99.90
3348;DHT22;1687;49.540;8.574;2023-11-18T00:52:34;9.30;99.90
3348;DHT22;1687;49.540;8.574;2023-11-18T00:55:00;9.30;99.90
3348;DHT22;1687;49.540;8.574;2023-11-18T00:57:26;9.30;99.90
3348;DHT22;1687;49.540;8.574;2023-11-18T00:59:52;9.20;99.90
3348;DHT22;1687;49.540;8.574;2023-11-18T01:02:18;9.20;99.90
3348;DHT22;1687;49.540;8.574;2023-11-18T01:04:44;9.10;99.90
3348;DHT22;1687;49.540;8.574;2023-11-18T01:07:13;9.20;99.90
3348;DHT22;1687;49.540;8.574;2023-11-18T01:09:38;9.20;99.90
3348;DHT22;1687;49.540;8.574;2023-11-18T01:12:05;9.20;99.90
3348;DHT22;1687;49.540;8.574;2023-11-18T01:14:38;9.20;99.90
3348;DHT22;1687;49.540;8.574;2023-11-18T01:17:05;9.20;99.90
3348;DHT22;1687;49.540;8.574;2023-11-18T01:19:31;9.10;99.90
3348;DHT22;1687;49.540;8.574;2023-11-18T01:21:59;8.90;99.90
3348;DHT22;1687;49.540;8.574;2023-11-18T01:24:24;8.90;99.90
3348;DHT22;1687;49.540;8.574;2023-11-18T01:26:50;8.80;99.90
3348;DHT22;1687;49.540;8.574;2023-11-18T01:29:16;8.80;99.90
3348;DHT22;1687;49.540;8.574;2023-11-18T01:31:42;8.80;99.90
3348;DHT22;1687;49.540;8.574;2023-11-18T01:34:09;8.70;99.90
3348;DHT22;1687;49.540;8.574;2023-11-18T01:36:35;8.70;99.90
3348;DHT22;1687;49.540;8.574;2023-11-18T01:39:00;8.70;99.90
3348;DHT22;1687;49.540;8.574;2023-11-18T01:41:26;8.60;99.90
3348;DHT22;1687;49.540;8.574;2023-11-18T01:43:52;8.60;99.90
3348;DHT22;1687;49.540;8.574;2023-11-18T01:46:19;8.60;99.90
3348;DHT22;1687;49.540;8.574;2023-11-18T01:48:45;8.60;99.90
3348;DHT22;1687;49.540;8.574;2023-11-18T01:51:11;8.60;99.90
3348;DHT22;1687;49.540;8.574;2023-11-18T01:53:38;8.60;99.90
3348;DHT22;1687;49.540;8.574;2023-11-18T01:56:06;8.60;99.90
3348;DHT22;1687;49.540;8.574;2023-11-18T01:58:35;8.50;99.90
3348;DHT22;1687;49.540;8.574;2023-11-18T02:01:02;8.60;99.90
3348;DHT22;1687;49.540;8.574;2023-11-18T02:03:35;8.50;99.90
3348;DHT22;1687;49.540;8.574;2023-11-18T02:06:03;8.50;99.90
3348;DHT22;1687;49.540;8.574;2023-11-18T02:08:33;8.40;99.90
3348;DHT22;1687;49.540;8.574;2023-11-18T02:13:40;8.30;99.90
3348;DHT22;1687;49.540;8.574;2023-11-18T02:16:07;8.30;99.90
3348;DHT22;1687;49.540;8.574;2023-11-18T02:18:35;8.20;99.90
3348;DHT22;1687;49.540;8.574;2023-11-18T02:21:06;8.20;99.90
3348;DHT22;1687;49.540;8.574;2023-11-18T02:23:33;8.10;99.90
3348;DHT22;1687;49.540;8.574;2023-11-18T02:25:59;8.10;99.90
3348;DHT22;1687;49.540;8.574;2023-11-18T02:28:26;8.10;99.90
3348;DHT22;1687;49.540;8.574;2023-11-18T02:30:59;8.00;99.90
3348;DHT22;1687;49.540;8.574;2023-11-18T02:33:51;8.00;99.90
3348;DHT22;1687;49.540;8.574;2023-11-18T02:36:26;8.00;99.90
3348;DHT22;1687;49.540;8.574;2023-11-18T02:39:25;7.90;99.90
3348;DHT22;1687;49.540;8.574;2023-11-18T02:41:55;7.90;99.90
3348;DHT22;1687;49.540;8.574;2023-11-18T02:44:23;7.90;99.90
3348;DHT22;1687;49.540;8.574;2023-11-18T02:46:51;7.90;99.90
3348;DHT22;1687;49.540;8.574;2023-11-18T02:49:16;7.80;99.90
3348;DHT22;1687;49.540;8.574;2023-11-18T02:51:43;7.90;99.90
3348;DHT22;1687;49.540;8.574;2023-11-18T02:54:10;7.80;99.90
3348;DHT22;1687;49.540;8.574;2023-11-18T02:56:37;7.80;99.90
3348;DHT22;1687;49.540;8.574;2023-11-18T02:59:03;7.80;99.90
3348;DHT22;1687;49.540;8.574;2023-11-18T03:01:34;7.90;99.90
3348;DHT22;1687;49.540;8.574;2023-11-18T03:04:00;7.80;99.90
3348;DHT22;1687;49.540;8.574;2023-11-18T03:06:26;7.80;99.90
3348;DHT22;1687;49.540;8.574;2023-11-18T03:08:52;7.70;99.90
3348;DHT22;1687;49.540;8.574;2023-11-18T03:11:19;7.60;99.90
3348;DHT22;1687;49.540;8.574;2023-11-18T03:13:45;7.60;99.90
3348;DHT22;1687;49.540;8.574;2023-11-18T03:16:14;7.60;99.90
3348;DHT22;1687;49.540;8.574;2023-11-18T03:18:40;7.50;99.90
3348;DHT22;1687;49.540;8.574;2023-11-18T03:21:13;7.50;99.90
3348;DHT22;1687;49.540;8.574;2023-11-18T03:23:40;7.50;99.90
3348;DHT22;1687;49.540;8.574;2023-11-18T03:26:06;7.50;99.90
3348;DHT22;1687;49.540;8.574;2023-11-18T03:28:33;7.50;99.90
3348;DHT22;1687;49.540;8.574;2023-11-18T03:30:59;7.40;99.90
3348;DHT22;1687;49.540;8.574;2023-11-18T03:33:25;7.40;99.90
3348;DHT22;1687;49.540;8.574;2023-11-18T03:35:50;7.30;99.90
3348;DHT22;1687;49.540;8.574;2023-11-18T03:38:16;7.40;99.90
3348;DHT22;1687;49.540;8.574;2023-11-18T03:40:45;7.40;99.90
3348;DHT22;1687;49.540;8.574;2023-11-18T03:43:11;7.50;99.90
3348;DHT22;1687;49.540;8.574;2023-11-18T03:45:39;7.60;99.90
3348;DHT22;1687;49.540;8.574;2023-11-18T03:48:06;7.60;99.90
3348;DHT22;1687;49.540;8.574;2023-11-18T03:50:33;7.60;99.90
3348;DHT22;1687;49.540;8.574;2023-11-18T03:52:59;7.60;99.90
3348;DHT22;1687;49.540;8.574;2023-11-18T03:55:25;7.60;99.90
3348;DHT22;1687;49.540;8.574;2023-11-18T03:57:53;7.60;99.90
3348;DHT22;1687;49.540;8.574;2023-11-18T04:00:19;7.60;99.90
3348;DHT22;1687;49.540;8.574;2023-11-18T04:02:46;7.70;99.90
3348;DHT22;1687;49.540;8.574;2023-11-18T04:05:12;7.70;99.90
3348;DHT22;1687;49.540;8.574;2023-11-18T04:07:38;7.70;99.90
3348;DHT22;1687;49.540;8.574;2023-11-18T04:10:08;7.70;99.90
3348;DHT22;1687;49.540;8.574;2023-11-18T04:12:36;7.60;99.90
3348;DHT22;1687;49.540;8.574;2023-11-18T04:15:04;7.60;99.90
3348;DHT22;1687;49.540;8.574;2023-11-18T04:17:30;7.70;99.90
3348;DHT22;1687;49.540;8.574;2023-11-18T04:19:56;7.70;99.90
3348;DHT22;1687;49.540;8.574;2023-11-18T04:22:23;7.70;99.90
3348;DHT22;1687;49.540;8.574;2023-11-18T04:24:49;7.70;99.90
3348;DHT22;1687;49.540;8.574;2023-11-18T04:27:15;7.60;99.90
3348;DHT22;1687;49.540;8.574;2023-11-18T04:29:41;7.60;99.90
3348;DHT22;1687;49.540;8.574;2023-11-18T04:32:07;7.60;99.90
3348;DHT22;1687;49.540;8.574;2023-11-18T04:34:36;7.70;99.90
3348;DHT22;1687;49.540;8.574;2023-11-18T04:37:05;7.70;99.90
3348;DHT22;1687;49.540;8.574;2023-11-18T04:39:32;7.60;99.90
3348;DHT22;1687;49.540;8.574;2023-11-18T04:41:58;7.50;99.90
3348;DHT22;1687;49.540;8.574;2023-11-18T04:44:24;7.60;99.90
3348;DHT22;1687;49.540;8.574;2023-11-18T04:46:49;7.60;99.90
3348;DHT22;1687;49.540;8.574;2023-11-18T04:49:15;7.60;99.90
3348;DHT22;1687;49.540;8.574;2023-11-18T04:51:41;7.60;99.90
3348;DHT22;1687;49.540;8.574;2023-11-18T04:54:06;7.60;99.90
3348;DHT22;1687;49.540;8.574;2023-11-18T04:56:34;7.60;99.90
3348;DHT22;1687;49.540;8.574;2023-11-18T04:59:03;7.50;99.90
3348;DHT22;1687;49.540;8.574;2023-11-18T05:01:33;7.60;99.90
3348;DHT22;1687;49.540;8.574;2023-11-18T05:03:59;7.60;99.90
3348;DHT22;1687;49.540;8.574;2023-11-18T05:06:25;7.60;99.90
3348;DHT22;1687;49.540;8.574;2023-11-18T05:08:52;7.60;99.90
3348;DHT22;1687;49.540;8.574;2023-11-18T05:11:18;7.60;99.90
3348;DHT22;1687;49.540;8.574;2023-11-18T05:13:43;7.60;99.90
3348;DHT22;1687;49.540;8.574;2023-11-18T05:16:09;7.70;99.90
3348;DHT22;1687;49.540;8.574;2023-11-18T05:18:37;7.80;99.90
3348;DHT22;1687;49.540;8.574;2023-11-18T05:21:04;7.80;99.90
3348;DHT22;1687;49.540;8.574;2023-11-18T05:23:31;7.80;99.90
3348;DHT22;1687;49.540;8.574;2023-11-18T05:25:57;7.90;99.90
3348;DHT22;1687;49.540;8.574;2023-11-18T05:28:24;8.00;99.90
3348;DHT22;1687;49.540;8.574;2023-11-18T05:30:50;8.00;99.90
3348;DHT22;1687;49.540;8.574;2023-11-18T05:33:17;8.10;99.90
3348;DHT22;1687;49.540;8.574;2023-11-18T05:35:44;8.10;99.90
3348;DHT22;1687;49.540;8.574;2023-11-18T05:38:16;8.00;99.90
3348;DHT22;1687;49.540;8.574;2023-11-18T05:40:44;8.00;99.90
3348;DHT22;1687;49.540;8.574;2023-11-18T05:43:24;7.90;99.90
3348;DHT22;1687;49.540;8.574;2023-11-18T05:46:05;7.90;99.90
3348;DHT22;1687;49.540;8.574;2023-11-18T05:48:44;8.00;99.90
3348;DHT22;1687;49.540;8.574;2023-11-18T05:51:10;8.00;99.90
3348;DHT22;1687;49.540;8.574;2023-11-18T05:53:42;8.00;99.90
3348;DHT22;1687;49.540;8.574;2023-11-18T05:56:14;8.00;99.90
3348;DHT22;1687;49.540;8.574;2023-11-18T05:58:42;8.00;99.90
3348;DHT22;1687;49.540;8.574;2023-11-18T06:01:11;8.10;99.90
3348;DHT22;1687;49.540;8.574;2023-11-18T06:03:38;8.10;99.90
3348;DHT22;1687;49.540;8.574;2023-11-18T06:06:06;8.10;99.90
3348;DHT22;1687;49.540;8.574;2023-11-18T06:08:34;8.10;99.90
3348;DHT22;1687;49.540;8.574;2023-11-18T06:11:10;8.00;99.90
3348;DHT22;1687;49.540;8.574;2023-11-18T06:13:49;8.00;99.90
3348;DHT22;1687;49.540;8.574;2023-11-18T06:16:21;8.00;99.90
3348;DHT22;1687;49.540;8.574;2023-11-18T06:18:49;8.00;99.90
3348;DHT22;1687;49.540;8.574;2023-11-18T06:21:18;8.10;99.90
3348;DHT22;1687;49.540;8.574;2023-11-18T06:23:46;8.00;99.90
3348;DHT22;1687;49.540;8.574;2023-11-18T06:26:13;8.00;99.90
3348;DHT22;1687;49.540;8.574;2023-11-18T06:28:44;8.00;99.90
3348;DHT22;1687;49.540;8.574;2023-11-18T06:31:11;7.90;99.90
3348;DHT22;1687;49.540;8.574;2023-11-18T06:33:46;8.00;99.90
3348;DHT22;1687;49.540;8.574;2023-11-18T06:38:48;8.00;99.90
3348;DHT22;1687;49.540;8.574;2023-11-18T06:41:16;8.00;99.90
3348;DHT22;1687;49.540;8.574;2023-11-18T06:43:44;7.90;99.90
3348;DHT22;1687;49.540;8.574;2023-11-18T06:46:20;7.90;99.90
3348;DHT22;1687;49.540;8.574;2023-11-18T06:48:57;7.80;99.90
3348;DHT22;1687;49.540;8.574;2023-11-18T06:51:27;7.90;99.90
3348;DHT22;1687;49.540;8.574;2023-11-18T06:53:54;7.90;99.90
3348;DHT22;1687;49.540;8.574;2023-11-18T06:56:27;7.90;99.90
3348;DHT22;1687;49.540;8.574;2023-11-18T06:58:56;7.70;99.90
3348;DHT22;1687;49.540;8.574;2023-11-18T07:01:22;7.80;99.90
3348;DHT22;1687;49.540;8.574;2023-11-18T07:03:48;7.90;99.90
3348;DHT22;1687;49.540;8.574;2023-11-18T07:06:18;8.00;99.90
3348;DHT22;1687;49.540;8.574;2023-11-18T07:08:49;8.00;99.90
3348;DHT22;1687;49.540;8.574;2023-11-18T07:11:15;8.00;99.90
3348;DHT22;1687;49.540;8.574;2023-11-18T07:13:43;8.10;99.90
3348;DHT22;1687;49.540;8.574;2023-11-18T07:16:13;8.00;99.90
3348;DHT22;1687;49.540;8.574;2023-11-18T07:18:40;8.10;99.90
3348;DHT22;1687;49.540;8.574;2023-11-18T07:21:07;8.10;99.90
3348;DHT22;1687;49.540;8.574;2023-11-18T07:23:35;8.20;99.90
3348;DHT22;1687;49.540;8.574;2023-11-18T07:26:01;8.10;99.90
3348;DHT22;1687;49.540;8.574;2023-11-18T07:28:29;8.10;99.90
3348;DHT22;1687;49.540;8.574;2023-11-18T07:30:55;8.10;99.90
3348;DHT22;1687;49.540;8.574;2023-11-18T07:33:21;8.00;99.90
3348;DHT22;1687;49.540;8.574;2023-11-18T07:35:48;8.00;99.90
3348;DHT22;1687;49.540;8.574;2023-11-18T07:38:14;8.10;99.90
3348;DHT22;1687;49.540;8.574;2023-11-18T07:40:41;8.20;99.90
3348;DHT22;1687;49.540;8.574;2023-11-18T07:43:08;8.20;99.90
3348;DHT22;1687;49.540;8.574;2023-11-18T07:45:35;8.10;99.90
3348;DHT22;1687;49.540;8.574;2023-11-18T07:50:36;8.20;99.90
3348;DHT22;1687;49.540;8.574;2023-11-18T07:53:02;8.30;99.90
3348;DHT22;1687;49.540;8.574;2023-11-18T07:55:31;8.40;99.90
3348;DHT22;1687;49.540;8.574;2023-11-18T07:58:00;8.50;99.90
3348;DHT22;1687;49.540;8.574;2023-11-18T08:00:27;8.60;99.90
3348;DHT22;1687;49.540;8.574;2023-11-18T08:02:56;8.40;99.90
3348;DHT22;1687;49.540;8.574;2023-11-18T08:05:25;8.40;99.90
3348;DHT22;1687;49.540;8.574;2023-11-18T08:07:51;8.40;99.90
3348;DHT22;1687;49.540;8.574;2023-11-18T08:10:19;8.40;99.90
3348;DHT22;1687;49.540;8.574;2023-11-18T08:12:45;8.30;99.90
3348;DHT22;1687;49.540;8.574;2023-11-18T08:15:11;8.30;99.90
3348;DHT22;1687;49.540;8.574;2023-11-18T08:17:37;8.30;99.90
3348;DHT22;1687;49.540;8.574;2023-11-18T08:20:04;8.30;99.90
3348;DHT22;1687;49.540;8.574;2023-11-18T08:22:42;8.50;99.90
3348;DHT22;1687;49.540;8.574;2023-11-18T08:25:12;8.50;99.90
3348;DHT22;1687;49.540;8.574;2023-11-18T08:27:40;8.40;99.90
3348;DHT22;1687;49.540;8.574;2023-11-18T08:30:07;8.40;99.90
3348;DHT22;1687;49.540;8.574;2023-11-18T08:32:42;8.50;99.90
3348;DHT22;1687;49.540;8.574;2023-11-18T08:35:13;8.50;99.90
3348;DHT22;1687;49.540;8.574;2023-11-18T08:37:40;8.60;99.90
3348;DHT22;1687;49.540;8.574;2023-11-18T08:40:08;8.70;99.90
3348;DHT22;1687;49.540;8.574;2023-11-18T08:42:51;8.80;99.90
3348;DHT22;1687;49.540;8.574;2023-11-18T08:45:23;8.90;99.90
3348;DHT22;1687;49.540;8.574;2023-11-18T08:47:55;8.90;99.90
3348;DHT22;1687;49.540;8.574;2023-11-18T08:50:22;9.00;99.90
3348;DHT22;1687;49.540;8.574;2023-11-18T08:52:52;9.00;99.90
3348;DHT22;1687;49.540;8.574;2023-11-18T08:55:23;9.10;99.90
3348;DHT22;1687;49.540;8.574;2023-11-18T08:58:04;9.20;99.90
3348;DHT22;1687;49.540;8.574;2023-11-18T09:00:41;9.30;99.90
3348;DHT22;1687;49.540;8.574;2023-11-18T09:03:12;9.30;99.90
3348;DHT22;1687;49.540;8.574;2023-11-18T09:05:54;9.40;99.90
3348;DHT22;1687;49.540;8.574;2023-11-18T09:08:28;9.50;99.90
3348;DHT22;1687;49.540;8.574;2023-11-18T09:11:02;9.60;99.90
3348;DHT22;1687;49.540;8.574;2023-11-18T09:13:31;9.70;99.90
3348;DHT22;1687;49.540;8.574;2023-11-18T09:16:01;9.80;99.90
3348;DHT22;1687;49.540;8.574;2023-11-18T09:18:34;9.80;99.90
3348;DHT22;1687;49.540;8.574;2023-11-18T09:21:01;9.80;99.90
3348;DHT22;1687;49.540;8.574;2023-11-18T09:23:30;9.70;99.90
3348;DHT22;1687;49.540;8.574;2023-11-18T09:25:57;9.60;99.90
3348;DHT22;1687;49.540;8.574;2023-11-18T09:28:24;9.60;99.90
3348;DHT22;1687;49.540;8.574;2023-11-18T09:30:50;9.60;99.90
3348;DHT22;1687;49.540;8.574;2023-11-18T09:33:22;9.70;99.90
3348;DHT22;1687;49.540;8.574;2023-11-18T09:35:57;9.80;99.90
3348;DHT22;1687;49.540;8.574;2023-11-18T09:38:33;9.70;99.90
3348;DHT22;1687;49.540;8.574;2023-11-18T09:41:06;9.70;99.90
3348;DHT22;1687;49.540;8.574;2023-11-18T09:43:42;9.70;99.90
3348;DHT22;1687;49.540;8.574;2023-11-18T09:46:16;9.80;99.90
3348;DHT22;1687;49.540;8.574;2023-11-18T09:48:49;9.90;99.90
3348;DHT22;1687;49.540;8.574;2023-11-18T09:51:42;10.10;99.90
3348;DHT22;1687;49.540;8.574;2023-11-18T09:54:36;10.10;99.90
3348;DHT22;1687;49.540;8.574;2023-11-18T09:57:23;10.10;99.90
3348;DHT22;1687;49.540;8.574;2023-11-18T10:02:50;10.00;99.90
3348;DHT22;1687;49.540;8.574;2023-11-18T10:05:16;10.10;99.90
3348;DHT22;1687;49.540;8.574;2023-11-18T10:07:47;10.10;99.90
3348;DHT22;1687;49.540;8.574;2023-11-18T10:10:12;10.20;99.90
3348;DHT22;1687;49.540;8.574;2023-11-18T10:12:44;10.20;99.90
3348;DHT22;1687;49.540;8.574;2023-11-18T10:15:14;10.10;99.90
3348;DHT22;1687;49.540;8.574;2023-11-18T10:17:44;10.10;99.90
3348;DHT22;1687;49.540;8.574;2023-11-18T10:23:14;10.20;99.90
3348;DHT22;1687;49.540;8.574;2023-11-18T10:25:54;10.20;99.90
3348;DHT22;1687;49.540;8.574;2023-11-18T10:31:01;10.20;99.90
3348;DHT22;1687;49.540;8.574;2023-11-18T10:33:40;10.30;99.90
3348;DHT22;1687;49.540;8.574;2023-11-18T10:36:20;10.30;99.90
3348;DHT22;1687;49.540;8.574;2023-11-18T10:38:51;10.20;99.90
3348;DHT22;1687;49.540;8.574;2023-11-18T10:41:21;10.20;99.90
3348;DHT22;1687;49.540;8.574;2023-11-18T10:43:48;10.20;99.90
3348;DHT22;1687;49.540;8.574;2023-11-18T10:46:16;10.20;99.90
3348;DHT22;1687;49.540;8.574;2023-11-18T10:48:50;10.30;99.90
3348;DHT22;1687;49.540;8.574;2023-11-18T10:51:17;10.30;99.90
3348;DHT22;1687;49.540;8.574;2023-11-18T10:53:51;10.30;99.90
3348;DHT22;1687;49.540;8.574;2023-11-18T10:56:24;10.40;99.90
3348;DHT22;1687;49.540;8.574;2023-11-18T10:59:00;10.40;99.90
3348;DHT22;1687;49.540;8.574;2023-11-18T11:01:35;10.40;99.90
3348;DHT22;1687;49.540;8.574;2023-11-18T11:04:08;10.30;99.90
3348;DHT22;1687;49.540;8.574;2023-11-18T11:06:49;10.30;99.90
3348;DHT22;1687;49.540;8.574;2023-11-18T11:09:19;10.40;99.90
3348;DHT22;1687;49.540;8.574;2023-11-18T11:11:59;10.50;99.90
3348;DHT22;1687;49.540;8.574;2023-11-18T11:14:33;10.60;99.90
3348;DHT22;1687;49.540;8.574;2023-11-18T11:17:07;10.60;99.90
3348;DHT22;1687;49.540;8.574;2023-11-18T11:22:25;10.50;99.90
3348;DHT22;1687;49.540;8.574;2023-11-18T11:28:06;10.60;99.90
3348;DHT22;1687;49.540;8.574;2023-11-18T11:30:45;10.60;99.90
3348;DHT22;1687;49.540;8.574;2023-11-18T11:36:08;10.70;99.90
3348;DHT22;1687;49.540;8.574;2023-11-18T11:38:37;10.70;99.90
3348;DHT22;1687;49.540;8.574;2023-11-18T11:41:07;10.70;99.90
3348;DHT22;1687;49.540;8.574;2023-11-18T11:43:37;10.60;99.90
3348;DHT22;1687;49.540;8.574;2023-11-18T11:46:06;10.60;99.90
3348;DHT22;1687;49.540;8.574;2023-11-18T11:48:38;10.50;99.90
3348;DHT22;1687;49.540;8.574;2023-11-18T11:54:04;10.50;99.90
3348;DHT22;1687;49.540;8.574;2023-11-18T11:56:49;10.50;99.90
3348;DHT22;1687;49.540;8.574;2023-11-18T11:59:16;10.50;99.90
3348;DHT22;1687;49.540;8.574;2023-11-18T12:01:42;10.50;99.90
3348;DHT22;1687;49.540;8.574;2023-11-18T12:04:14;10.50;99.90
3348;DHT22;1687;49.540;8.574;2023-11-18T12:06:48;10.40;99.90
3348;DHT22;1687;49.540;8.574;2023-11-18T12:09:19;10.40;99.90
3348;DHT22;1687;49.540;8.574;2023-11-18T12:11:45;10.30;99.90
3348;DHT22;1687;49.540;8.574;2023-11-18T12:14:15;10.30;99.90
3348;DHT22;1687;49.540;8.574;2023-11-18T12:17:07;10.30;99.90
3348;DHT22;1687;49.540;8.574;2023-11-18T12:19:38;10.30;99.90
3348;DHT22;1687;49.540;8.574;2023-11-18T12:22:18;10.30;99.90
3348;DHT22;1687;49.540;8.574;2023-11-18T12:27:44;10.20;99.90
3348;DHT22;1687;49.540;8.574;2023-11-18T12:41:35;10.20;99.90
3348;DHT22;1687;49.540;8.574;2023-11-18T12:49:37;10.30;99.90
3348;DHT22;1687;49.540;8.574;2023-11-18T12:52:11;10.30;99.90
3348;DHT22;1687;49.540;8.574;2023-11-18T12:54:40;10.40;99.90
3348;DHT22;1687;49.540;8.574;2023-11-18T12:57:10;10.30;99.90
3348;DHT22;1687;49.540;8.574;2023-11-18T12:59:39;10.20;99.90
3348;DHT22;1687;49.540;8.574;2023-11-18T13:02:10;10.20;99.90
3348;DHT22;1687;49.540;8.574;2023-11-18T13:04:45;10.20;99.90
3348;DHT22;1687;49.540;8.574;2023-11-18T13:07:15;10.30;99.90
3348;DHT22;1687;49.540;8.574;2023-11-18T13:09:43;10.40;99.90
3348;DHT22;1687;49.540;8.574;2023-11-18T13:12:11;10.50;99.90
3348;DHT22;1687;49.540;8.574;2023-11-18T13:14:43;10.50;99.90
3348;DHT22;1687;49.540;8.574;2023-11-18T13:17:15;10.50;99.90
3348;DHT22;1687;49.540;8.574;2023-11-18T13:19:43;10.40;99.90
3348;DHT22;1687;49.540;8.574;2023-11-18T13:22:11;10.40;99.90
3348;DHT22;1687;49.540;8.574;2023-11-18T13:24:39;10.40;99.90
3348;DHT22;1687;49.540;8.574;2023-11-18T13:27:07;10.50;99.90
3348;DHT22;1687;49.540;8.574;2023-11-18T13:29:36;10.50;99.90
3348;DHT22;1687;49.540;8.574;2023-11-18T13:32:04;10.60;99.90
3348;DHT22;1687;49.540;8.574;2023-11-18T13:34:35;10.60;99.90
3348;DHT22;1687;49.540;8.574;2023-11-18T13:37:11;10.60;99.90
3348;DHT22;1687;49.540;8.574;2023-11-18T13:39:42;10.60;99.90
3348;DHT22;1687;49.540;8.574;2023-11-18T13:42:20;10.60;99.90
3348;DHT22;1687;49.540;8.574;2023-11-18T13:44:47;10.60;99.90
3348;DHT22;1687;49.540;8.574;2023-11-18T13:47:16;10.60;99.90
3348;DHT22;1687;49.540;8.574;2023-11-18T13:49:42;10.60;99.90
3348;DHT22;1687;49.540;8.574;2023-11-18T13:52:08;10.60;99.90
3348;DHT22;1687;49.540;8.574;2023-11-18T13:54:37;10.50;99.80
3348;DHT22;1687;49.540;8.574;2023-11-18T13:57:04;10.50;99.90
3348;DHT22;1687;49.540;8.574;2023-11-18T13:59:31;10.50;99.90
3348;DHT22;1687;49.540;8.574;2023-11-18T14:01:58;10.50;99.90
3348;DHT22;1687;49.540;8.574;2023-11-18T14:04:28;10.50;99.90
3348;DHT22;1687;49.540;8.574;2023-11-18T14:06:59;10.60;99.90
3348;DHT22;1687;49.540;8.574;2023-11-18T14:09:31;10.50;99.90
3348;DHT22;1687;49.540;8.574;2023-11-18T14:12:06;10.50;99.90
3348;DHT22;1687;49.540;8.574;2023-11-18T14:14:33;10.60;99.90
3348;DHT22;1687;49.540;8.574;2023-11-18T14:16:59;10.50;99.50
3348;DHT22;1687;49.540;8.574;2023-11-18T14:19:27;10.50;99.50
3348;DHT22;1687;49.540;8.574;2023-11-18T14:21:54;10.40;99.60
3348;DHT22;1687;49.540;8.574;2023-11-18T14:24:21;10.40;99.80
3348;DHT22;1687;49.540;8.574;2023-11-18T14:26:56;10.40;99.50
3348;DHT22;1687;49.540;8.574;2023-11-18T14:29:22;10.40;99.40
3348;DHT22;1687;49.540;8.574;2023-11-18T14:31:48;10.40;99.40
3348;DHT22;1687;49.540;8.574;2023-11-18T14:34:14;10.40;99.80
3348;DHT22;1687;49.540;8.574;2023-11-18T14:36:40;10.40;99.60
3348;DHT22;1687;49.540;8.574;2023-11-18T14:39:08;10.40;99.50
3348;DHT22;1687;49.540;8.574;2023-11-18T14:41:36;10.40;99.10
3348;DHT22;1687;49.540;8.574;2023-11-18T14:44:02;10.40;99.50
3348;DHT22;1687;49.540;8.574;2023-11-18T14:46:30;10.40;99.00
3348;DHT22;1687;49.540;8.574;2023-11-18T14:48:59;10.30;99.10
3348;DHT22;1687;49.540;8.574;2023-11-18T14:51:24;10.30;99.30
3348;DHT22;1687;49.540;8.574;2023-11-18T14:53:51;10.30;99.40
3348;DHT22;1687;49.540;8.574;2023-11-18T14:56:17;10.30;99.40
3348;DHT22;1687;49.540;8.574;2023-11-18T14:58:43;10.40;99.40
3348;DHT22;1687;49.540;8.574;2023-11-18T15:01:11;10.40;99.30
3348;DHT22;1687;49.540;8.574;2023-11-18T15:03:37;10.30;98.90
3348;DHT22;1687;49.540;8.574;2023-11-18T15:06:03;10.30;99.00
3348;DHT22;1687;49.540;8.574;2023-11-18T15:08:31;10.30;99.20
3348;DHT22;1687;49.540;8.574;2023-11-18T15:10:57;10.20;98.90
3348;DHT22;1687;49.540;8.574;2023-11-18T15:13:26;10.20;99.30
3348;DHT22;1687;49.540;8.574;2023-11-18T15:15:52;10.20;99.20
3348;DHT22;1687;49.540;8.574;2023-11-18T15:18:17;10.20;99.10
3348;DHT22;1687;49.540;8.574;2023-11-18T15:20:45;10.20;99.10
3348;DHT22;1687;49.540;8.574;2023-11-18T15:23:12;10.10;99.10
3348;DHT22;1687;49.540;8.574;2023-11-18T15:25:39;10.10;99.20
3348;DHT22;1687;49.540;8.574;2023-11-18T15:28:05;10.10;99.30
3348;DHT22;1687;49.540;8.574;2023-11-18T15:30:37;10.20;99.40
3348;DHT22;1687;49.540;8.574;2023-11-18T15:33:05;10.20;99.30
3348;DHT22;1687;49.540;8.574;2023-11-18T15:35:36;10.30;99.30
3348;DHT22;1687;49.540;8.574;2023-11-18T15:38:07;10.30;99.30
3348;DHT22;1687;49.540;8.574;2023-11-18T15:40:37;10.40;99.70
3348;DHT22;1687;49.540;8.574;2023-11-18T15:43:04;10.40;99.20
3348;DHT22;1687;49.540;8.574;2023-11-18T15:45:32;10.30;99.00
3348;DHT22;1687;49.540;8.574;2023-11-18T15:47:59;10.20;99.00
3348;DHT22;1687;49.540;8.574;2023-11-18T15:50:31;10.20;99.30
3348;DHT22;1687;49.540;8.574;2023-11-18T15:52:57;10.20;99.20
3348;DHT22;1687;49.540;8.574;2023-11-18T15:55:23;10.20;99.10
3348;DHT22;1687;49.540;8.574;2023-11-18T15:57:51;10.30;99.30
3348;DHT22;1687;49.540;8.574;2023-11-18T16:00:18;10.20;99.00
3348;DHT22;1687;49.540;8.574;2023-11-18T16:02:59;10.20;99.10
3348;DHT22;1687;49.540;8.574;2023-11-18T16:05:26;10.10;99.40
3348;DHT22;1687;49.540;8.574;2023-11-18T16:07:54;10.20;99.50
3348;DHT22;1687;49.540;8.574;2023-11-18T16:10:22;10.20;99.50
3348;DHT22;1687;49.540;8.574;2023-11-18T16:12:53;10.20;99.40
3348;DHT22;1687;49.540;8.574;2023-11-18T16:15:24;10.20;99.40
3348;DHT22;1687;49.540;8.574;2023-11-18T16:17:53;10.10;99.40
3348;DHT22;1687;49.540;8.574;2023-11-18T16:20:21;10.10;99.50
3348;DHT22;1687;49.540;8.574;2023-11-18T16:22:50;10.20;99.70
3348;DHT22;1687;49.540;8.574;2023-11-18T16:25:26;10.20;99.60
3348;DHT22;1687;49.540;8.574;2023-11-18T16:27:55;10.20;99.60
3348;DHT22;1687;49.540;8.574;2023-11-18T16:30:22;10.30;99.50
3348;DHT22;1687;49.540;8.574;2023-11-18T16:32:55;10.20;99.60
3348;DHT22;1687;49.540;8.574;2023-11-18T16:35:25;10.20;99.50
3348;DHT22;1687;49.540;8.574;2023-11-18T16:37:51;10.30;99.50
3348;DHT22;1687;49.540;8.574;2023-11-18T16:40:17;10.30;99.80
3348;DHT22;1687;49.540;8.574;2023-11-18T16:42:47;10.30;99.70
3348;DHT22;1687;49.540;8.574;2023-11-18T16:45:14;10.30;99.60
3348;DHT22;1687;49.540;8.574;2023-11-18T16:47:41;10.40;99.50
3348;DHT22;1687;49.540;8.574;2023-11-18T16:50:11;10.30;99.70
3348;DHT22;1687;49.540;8.574;2023-11-18T16:52:38;10.30;99.40
3348;DHT22;1687;49.540;8.574;2023-11-18T16:55:08;10.20;99.20
3348;DHT22;1687;49.540;8.574;2023-11-18T16:57:34;10.20;99.60
3348;DHT22;1687;49.540;8.574;2023-11-18T17:00:08;10.20;99.60
3348;DHT22;1687;49.540;8.574;2023-11-18T17:02:52;10.20;99.70
3348;DHT22;1687;49.540;8.574;2023-11-18T17:05:20;10.20;99.60
3348;DHT22;1687;49.540;8.574;2023-11-18T17:07:46;10.10;99.60
3348;DHT22;1687;49.540;8.574;2023-11-18T17:10:14;10.10;99.40
3348;DHT22;1687;49.540;8.574;2023-11-18T17:12:44;10.00;99.60